Dunbar, NE (68346)

7:41 AM CST on March 03, 2015 (GMT -0600)
Dunbar Water Tower | Change Station
CLOSE
Current Station
Personal Weather Station
Location: Dunbar, NE
Elevation: 1155 ft
Nearby Weather Stations
Active Advisory: Special Statement

Elev 1155 ft 40.67 °N, 96.04 °W | Updated 1 minute ago

Fog
Fog
32.7 °F
Feels Like 30 °F
N
3.2
Wind Variable Wind from SSW

Today
High -- | Low -- °F
--% Chance of Precip.
Yesterday
High -- | Low -- °F
Precip. -- in
6:55 AM 6:17 PM
Waxing Gibbous, 96% visible
Pressure 29.66 in
Visibility 0.8 miles
Clouds Overcast 300 ft
Windchill 30 °F
Dew Point 32 °F
Humidity 99%
Rainfall 0.00 in
Snow Depth Not available.
UV 0 out of 12
Pollen 3.40 out of 12
Air Quality Not available.
Flu Activity Not available.
METAR KAFK 031335Z AUTO 21004KT 3/4SM BR OVC003 01/01 A2966 RMK AO2 T00100010

More Conditions Fewer Conditions

Pressure 29.66 in
Visibility 0.8 miles
Clouds Overcast 300 ft
Windchill 30 °F
Dew Point 32 °F
Humidity 99%
Rainfall 0.00 in
Snow Depth Not available.
UV 0 out of 12
Pollen 3.40 out of 12
Air Quality Not available.
Flu Activity Not available.
METAR KAFK 031335Z AUTO 21004KT 3/4SM BR OVC003 01/01 A2966 RMK AO2 T00100010

More Conditions Fewer Conditions

10-Day Weather Forecast

Almanac

Astronomy

Mar. 03, 2015 Rise Set
Actual Time
Civil Twilight
Nautical Twilight
Astronomical Twilight
Moon
Length of Visible Light
Length of Day
Tomorrow will be .
, % of the Moon is Illuminated

Today's Extremes

State Highs State Lows

Community

WunderPhotos

Upload Photos

1,802,102 photos uploaded!

WunderBlogs® & News

Nearby

Air Quality

  Air Quality AQ Index Pollutant
Not available.

Snow Depth

Station Depth Elevation

Earthquake Activity

City Distance Mag. Time & Date
Minimum magnitude displayed is 2.5.

Coastal Water Temperatures

Place Temperature

Nearby Weather Stations

Special Statement
Statement as of 6:42 AM CST on March 03, 2015

... Freezing drizzle this morning...

Areas of freezing drizzle will continue this morning with
temperatures ranging from 29 to 34 degrees. While main roads will
mostly be okay because they were likely pretreated... be prepared
for some slick spots on untreated roadways... and especially
secondary roads and also neighborhood streets and on rural roads.
Bridges and overpasses could also be very slick this morning... in
addition to sidewalks and parking lots. Please use extra caution
and slow down... use winter driving skills and allow some extra
travel time to reach your destination.


Dewald

520 am CST Tue Mar 3 2015

... Freezing drizzle possible this morning...

Areas of drizzle will occur this morning... with temperatures
ranging from 30 to 33 degrees. Thus... be prepared for some slick
spots on untreated roadways... and especially on bridges and
overpasses and in low lying areas. Sidewalks and parking lots
could also become slick.


Dewald